Time;durP1;ratioP1;P1;durP2;ratioP2;P2;SDS_P1;SDS_P2;PMS_P1;PMS_P2;Temp;Humidity;BMP_temperature;BMP_pressure;BME280_temperature;BME280_humidity;BME280_pressure;Samples;Min_cycle;Max_cycle;Signal;HPM_P1;HPM_P2
2021/04/26 00:01:33;;;;;;;0.50;0.50;;;4.90;99.90;;;;;;5057562;28;20222;-56
2021/04/26 00:04:01;;;;;;;0.80;0.50;;;4.90;99.90;;;;;;5056108;28;20285;-51
2021/04/26 00:06:27;;;;;;;1.30;0.60;;;4.90;99.90;;;;;;5057917;28;20361;-58
2021/04/26 00:08:53;;;;;;;2.73;0.67;;;4.90;99.90;;;;;;5063762;28;20183;-54
2021/04/26 00:11:19;;;;;;;1.30;0.50;;;4.90;99.90;;;;;;5063796;28;20218;-56
2021/04/26 00:13:45;;;;;;;4.63;1.03;;;4.80;99.90;;;;;;5046376;28;21752;-52
2021/04/26 00:16:12;;;;;;;2.23;0.67;;;4.80;99.90;;;;;;5053077;28;20199;-52
2021/04/26 00:18:39;;;;;;;6.47;0.80;;;4.70;99.90;;;;;;5040770;28;20384;-54
2021/04/26 00:21:05;;;;;;;2.70;0.90;;;4.70;99.90;;;;;;5044800;28;20215;-53
2021/04/26 00:23:31;;;;;;;1.07;0.70;;;4.70;99.90;;;;;;5041477;28;20210;-57
2021/04/26 00:25:58;;;;;;;1.70;0.57;;;4.60;99.90;;;;;;5044710;28;20195;-56
2021/04/26 00:28:24;;;;;;;2.00;0.80;;;4.60;99.90;;;;;;5043003;28;20242;-58
2021/04/26 00:30:50;;;;;;;1.90;0.60;;;4.60;99.90;;;;;;5033428;28;20321;-54
2021/04/26 00:33:17;;;;;;;2.23;0.50;;;4.50;99.90;;;;;;5055624;28;20264;-56
2021/04/26 00:35:43;;;;;;;4.23;0.67;;;4.50;99.90;;;;;;5035478;28;20245;-54
2021/04/26 00:38:09;;;;;;;0.50;0.50;;;4.40;99.90;;;;;;5064766;28;20198;-56
2021/04/26 00:40:36;;;;;;;2.00;0.60;;;4.40;99.90;;;;;;5060210;28;20187;-52
2021/04/26 00:43:02;;;;;;;3.70;1.03;;;4.40;99.90;;;;;;5064855;28;20292;-52
2021/04/26 00:45:28;;;;;;;2.33;0.60;;;4.40;99.90;;;;;;5039953;28;20741;-58
2021/04/26 00:47:54;;;;;;;1.17;0.70;;;4.30;99.90;;;;;;5052185;28;20609;-54
2021/04/26 00:50:25;;;;;;;2.20;0.67;;;4.30;99.90;;;;;;5042563;28;20669;-58
2021/04/26 00:52:52;;;;;;;2.30;0.63;;;4.30;99.90;;;;;;5044079;28;20337;-52
2021/04/26 00:55:20;;;;;;;0.93;0.50;;;4.30;99.90;;;;;;5054799;28;20619;-56
2021/04/26 00:57:47;;;;;;;0.70;0.60;;;4.20;99.90;;;;;;5062151;28;20266;-53
2021/04/26 01:00:14;;;;;;;4.50;0.70;;;4.10;99.90;;;;;;5044567;28;20225;-53
2021/04/26 01:02:42;;;;;;;2.13;0.57;;;4.10;99.90;;;;;;5050286;28;20654;-55
2021/04/26 01:05:13;;;;;;;1.03;0.80;;;4.00;99.90;;;;;;5064533;28;20225;-56
2021/04/26 01:07:42;;;;;;;1.43;0.67;;;4.00;99.90;;;;;;5060426;28;20801;-54
2021/04/26 01:10:13;;;;;;;0.80;0.60;;;4.00;99.90;;;;;;5046071;28;20222;-54
2021/04/26 01:12:51;;;;;;;0.73;0.40;;;3.90;99.90;;;;;;5059370;28;20374;-52
2021/04/26 01:15:23;;;;;;;2.53;0.67;;;3.90;99.90;;;;;;5059397;28;20282;-58
2021/04/26 01:17:52;;;;;;;3.07;0.80;;;3.80;99.90;;;;;;5043330;28;20202;-56
2021/04/26 01:20:56;;;;;;;2.20;0.80;;;3.70;99.90;;;;;;5034932;28;20229;-56
2021/04/26 01:24:02;;;;;;;1.27;0.77;;;3.70;99.90;;;;;;5060845;28;20200;-56
2021/04/26 01:26:36;;;;;;;0.83;0.73;;;3.60;99.90;;;;;;5018532;28;20221;-55
2021/04/26 01:29:17;;;;;;;1.87;0.60;;;3.50;99.90;;;;;;5063743;28;20324;-55
2021/04/26 01:32:01;;;;;;;2.33;0.90;;;3.50;99.90;;;;;;5045020;28;20332;-51
2021/04/26 01:34:30;;;;;;;3.07;0.70;;;3.50;99.90;;;;;;5030467;28;20210;-58
2021/04/26 01:37:05;;;;;;;3.33;0.70;;;3.40;99.90;;;;;;5005887;28;20212;-56
2021/04/26 01:39:32;;;;;;;1.10;0.50;;;3.50;99.90;;;;;;5019801;28;20195;-58
2021/04/26 01:42:00;;;;;;;1.57;0.77;;;3.50;99.90;;;;;;5006128;28;20705;-53
2021/04/26 01:44:26;;;;;;;0.70;0.70;;;3.40;99.90;;;;;;5032176;28;20254;-52
2021/04/26 01:46:53;;;;;;;3.33;0.67;;;3.40;99.90;;;;;;5021583;28;20250;-56
2021/04/26 01:49:20;;;;;;;1.77;0.70;;;3.40;99.90;;;;;;5039911;28;20289;-57
2021/04/26 01:51:47;;;;;;;3.27;0.80;;;3.30;99.90;;;;;;5061553;28;20213;-56
2021/04/26 01:54:15;;;;;;;2.03;0.80;;;3.20;99.90;;;;;;5059017;28;20780;-51
2021/04/26 01:56:43;;;;;;;1.60;0.67;;;3.10;99.90;;;;;;5045298;28;20254;-54
2021/04/26 01:59:13;;;;;;;3.13;0.60;;;3.10;99.90;;;;;;5058804;28;20205;-54
2021/04/26 02:01:41;;;;;;;2.00;0.60;;;3.10;99.90;;;;;;5045225;28;20221;-52
2021/04/26 02:04:13;;;;;;;1.07;0.73;;;3.10;99.90;;;;;;5035951;28;20202;-57
2021/04/26 02:07:05;;;;;;;1.13;0.60;;;3.00;99.90;;;;;;5018202;28;20568;-58
2021/04/26 02:09:38;;;;;;;2.27;0.80;;;3.00;99.90;;;;;;5022825;28;20199;-56
2021/04/26 02:12:13;;;;;;;1.57;0.60;;;3.00;99.90;;;;;;5018687;28;20227;-54
2021/04/26 02:14:43;;;;;;;2.00;0.93;;;2.90;99.90;;;;;;5005399;28;20226;-55
2021/04/26 02:17:09;;;;;;;2.60;0.70;;;2.90;99.90;;;;;;5018779;28;20201;-51
2021/04/26 02:19:37;;;;;;;2.23;0.70;;;2.90;99.90;;;;;;5017507;28;20253;-54
2021/04/26 02:22:04;;;;;;;2.07;0.70;;;2.90;99.90;;;;;;5028345;28;20315;-57
2021/04/26 02:24:35;;;;;;;1.83;1.07;;;2.80;99.90;;;;;;5042777;28;20194;-52
2021/04/26 02:27:02;;;;;;;1.47;0.70;;;2.80;99.90;;;;;;5021854;28;20207;-58
2021/04/26 02:29:28;;;;;;;3.07;0.83;;;2.80;99.90;;;;;;5041760;28;20248;-54
2021/04/26 02:32:00;;;;;;;2.43;0.97;;;2.70;99.90;;;;;;5023287;28;20229;-56
2021/04/26 02:34:34;;;;;;;0.90;0.70;;;2.70;99.90;;;;;;5012417;28;20338;-54
2021/04/26 02:37:09;;;;;;;0.67;0.60;;;2.60;99.90;;;;;;5021672;28;20706;-58
2021/04/26 02:39:36;;;;;;;5.50;0.70;;;2.60;99.90;;;;;;5042532;28;20581;-51
2021/04/26 02:42:04;;;;;;;1.80;0.73;;;2.60;99.90;;;;;;5039598;28;20665;-59
2021/04/26 02:44:38;;;;;;;0.97;0.83;;;2.60;99.90;;;;;;5024814;28;20193;-51
2021/04/26 02:47:13;;;;;;;1.27;0.67;;;2.50;99.90;;;;;;5020534;28;20720;-59
2021/04/26 02:49:51;;;;;;;4.00;0.60;;;2.40;99.90;;;;;;5030912;28;20271;-59
2021/04/26 02:52:18;;;;;;;0.73;0.70;;;2.40;99.90;;;;;;5030576;28;20476;-55
2021/04/26 02:54:46;;;;;;;1.10;0.73;;;2.40;99.90;;;;;;5026438;28;20253;-54
2021/04/26 02:57:14;;;;;;;1.43;0.60;;;2.40;99.90;;;;;;5020310;28;20333;-56
2021/04/26 02:59:44;;;;;;;1.43;0.70;;;2.40;99.90;;;;;;5024505;28;20203;-50
2021/04/26 03:02:14;;;;;;;3.53;0.90;;;2.30;99.90;;;;;;5020106;28;20918;-52
2021/04/26 03:04:58;;;;;;;1.40;0.80;;;2.30;99.90;;;;;;5016769;28;20215;-59
2021/04/26 03:07:26;;;;;;;2.60;0.80;;;2.30;99.90;;;;;;5027888;28;20406;-55
2021/04/26 03:09:56;;;;;;;2.90;0.77;;;2.20;99.90;;;;;;5041013;28;20201;-54
2021/04/26 03:12:26;;;;;;;1.37;0.67;;;2.20;99.90;;;;;;5022763;28;20908;-51
2021/04/26 03:14:53;;;;;;;1.47;0.57;;;2.30;99.90;;;;;;5041387;28;20257;-58
2021/04/26 03:17:20;;;;;;;1.13;0.50;;;2.20;99.90;;;;;;5039681;28;20846;-53
2021/04/26 03:19:59;;;;;;;1.33;0.63;;;2.30;99.90;;;;;;5029980;28;20199;-56
2021/04/26 03:22:27;;;;;;;1.40;0.60;;;2.30;99.90;;;;;;5018932;28;20222;-55
2021/04/26 03:24:54;;;;;;;0.80;0.40;;;2.30;99.90;;;;;;5017051;28;20258;-57
2021/04/26 03:27:22;;;;;;;2.67;0.60;;;2.20;99.90;;;;;;5019731;28;20305;-54
2021/04/26 03:29:52;;;;;;;2.87;0.73;;;2.30;99.90;;;;;;5022215;28;20233;-58
2021/04/26 03:32:23;;;;;;;1.53;0.40;;;2.20;99.90;;;;;;5039240;28;20485;-52
2021/04/26 03:35:00;;;;;;;3.43;1.10;;;2.10;99.90;;;;;;5022828;28;20314;-57
2021/04/26 03:37:29;;;;;;;1.47;0.70;;;2.00;99.90;;;;;;5014477;28;20258;-50
2021/04/26 03:39:56;;;;;;;1.53;0.70;;;2.00;99.90;;;;;;5054961;28;20199;-54
2021/04/26 03:42:23;;;;;;;3.00;1.00;;;2.00;99.90;;;;;;5045883;28;20507;-49
2021/04/26 03:44:50;;;;;;;3.23;0.93;;;2.00;99.90;;;;;;5065386;28;20186;-56
2021/04/26 03:47:44;;;;;;;2.47;1.10;;;1.90;99.90;;;;;;5063623;28;20204;-55
2021/04/26 03:50:28;;;;;;;2.43;1.00;;;1.90;99.90;;;;;;5056543;28;20207;-54
2021/04/26 03:53:14;;;;;;;2.57;1.00;;;1.90;99.90;;;;;;5038004;28;20308;-51
2021/04/26 03:55:57;;;;;;;2.00;0.70;;;1.90;99.90;;;;;;5033520;28;20307;-57
2021/04/26 03:58:24;;;;;;;1.10;0.60;;;1.90;99.90;;;;;;5025644;28;20288;-52
2021/04/26 04:00:50;;;;;;;3.13;0.63;;;1.90;99.90;;;;;;5025532;28;20218;-58
2021/04/26 04:03:17;;;;;;;1.30;0.80;;;1.90;99.90;;;;;;5028390;28;20294;-51
2021/04/26 04:05:47;;;;;;;1.77;0.80;;;1.80;99.90;;;;;;5027159;28;20198;-54
2021/04/26 04:08:34;;;;;;;2.10;1.10;;;1.80;99.90;;;;;;5009452;28;20215;-54
2021/04/26 04:11:19;;;;;;;1.43;1.03;;;1.70;99.90;;;;;;5051474;28;20226;-53
2021/04/26 04:14:04;;;;;;;4.37;1.00;;;1.60;99.90;;;;;;5062004;28;20524;-56
2021/04/26 04:16:32;;;;;;;1.97;0.80;;;1.60;99.90;;;;;;5047394;28;20187;-50
2021/04/26 04:18:59;;;;;;;2.17;0.80;;;1.60;99.90;;;;;;5059731;28;20192;-58
2021/04/26 04:21:29;;;;;;;2.10;0.90;;;1.60;99.90;;;;;;5034337;28;20705;-52
2021/04/26 04:23:56;;;;;;;1.50;0.80;;;1.60;99.90;;;;;;5041086;28;20624;-59
2021/04/26 04:26:23;;;;;;;2.20;1.10;;;1.70;99.90;;;;;;5057728;28;20691;-52
2021/04/26 04:28:59;;;;;;;2.07;1.00;;;1.80;99.90;;;;;;5044556;28;20798;-60
2021/04/26 04:32:00;;;;;;;1.70;0.90;;;1.80;99.90;;;;;;4980015;28;20232;-58
2021/04/26 04:35:03;;;;;;;3.10;0.70;;;1.90;99.90;;;;;;5061618;28;20259;-57
2021/04/26 04:37:47;;;;;;;1.10;0.67;;;1.90;99.90;;;;;;5048922;28;20222;-52
2021/04/26 04:40:49;;;;;;;2.27;0.83;;;1.90;99.90;;;;;;5048849;28;20375;-50
2021/04/26 04:43:20;;;;;;;1.97;0.80;;;1.80;99.90;;;;;;5016440;28;20205;-53
2021/04/26 04:45:54;;;;;;;1.40;1.00;;;1.90;99.90;;;;;;5060979;28;20203;-53
2021/04/26 04:48:39;;;;;;;1.23;0.77;;;2.00;99.90;;;;;;5034461;28;20223;-58
2021/04/26 04:51:09;;;;;;;2.87;0.90;;;2.10;99.90;;;;;;5051755;28;20940;-50
2021/04/26 04:53:38;;;;;;;3.40;0.70;;;2.10;99.90;;;;;;5011499;28;20232;-58
2021/04/26 04:56:06;;;;;;;1.10;0.90;;;2.20;99.90;;;;;;5032013;28;20221;-51
2021/04/26 04:58:36;;;;;;;3.17;1.00;;;2.30;99.90;;;;;;5045456;28;20206;-55
2021/04/26 05:01:03;;;;;;;1.77;1.00;;;2.30;99.90;;;;;;5041472;28;21144;-52
2021/04/26 05:03:48;;;;;;;0.73;0.73;;;2.30;99.90;;;;;;5037059;28;20253;-58
2021/04/26 05:06:33;;;;;;;1.80;0.77;;;2.40;99.90;;;;;;5037496;28;20211;-58
2021/04/26 05:09:18;;;;;;;1.70;1.10;;;2.40;99.90;;;;;;5041005;28;20231;-49
2021/04/26 05:12:17;;;;;;;3.10;0.80;;;2.50;99.90;;;;;;5001409;28;20251;-52
2021/04/26 05:15:02;;;;;;;3.57;1.07;;;2.70;99.90;;;;;;5026538;28;20504;-53
2021/04/26 05:17:28;;;;;;;1.67;0.67;;;2.80;99.90;;;;;;5030531;28;20312;-56
2021/04/26 05:19:55;;;;;;;3.40;1.07;;;2.80;99.90;;;;;;5046024;28;20652;-52
2021/04/26 05:22:21;;;;;;;3.27;0.90;;;2.90;99.90;;;;;;5045960;28;20641;-57
2021/04/26 05:24:57;;;;;;;0.83;0.80;;;2.90;99.90;;;;;;5022512;28;20277;-56
2021/04/26 05:27:24;;;;;;;3.53;1.13;;;3.00;99.90;;;;;;5023259;28;20214;-55
2021/04/26 05:29:51;;;;;;;5.97;0.90;;;3.00;99.90;;;;;;5023883;28;20215;-55
2021/04/26 05:32:19;;;;;;;3.20;1.00;;;3.00;99.90;;;;;;5020046;28;20228;-56
2021/04/26 05:34:47;;;;;;;1.00;0.90;;;3.00;99.90;;;;;;5013295;28;20216;-58
2021/04/26 05:37:13;;;;;;;2.07;0.93;;;3.10;99.90;;;;;;5019966;28;20204;-57
2021/04/26 05:39:41;;;;;;;2.20;0.90;;;3.20;99.90;;;;;;5007207;28;20214;-54
2021/04/26 05:42:08;;;;;;;2.87;1.03;;;3.20;99.90;;;;;;5032188;28;20948;-54
2021/04/26 05:44:35;;;;;;;2.50;0.80;;;3.30;99.90;;;;;;5036493;28;20566;-53
2021/04/26 05:47:29;;;;;;;3.37;1.10;;;3.40;99.90;;;;;;5034418;28;20282;-51
2021/04/26 05:49:55;;;;;;;4.30;1.00;;;3.40;99.90;;;;;;5047854;28;20199;-57
2021/04/26 05:52:21;;;;;;;1.63;0.97;;;3.50;99.90;;;;;;5048801;28;21078;-57
2021/04/26 05:54:47;;;;;;;3.20;0.90;;;3.50;99.90;;;;;;5038690;28;20265;-53
2021/04/26 05:57:14;;;;;;;3.80;1.00;;;3.60;99.90;;;;;;5048738;28;20243;-57
2021/04/26 05:59:40;;;;;;;4.00;1.10;;;3.60;99.90;;;;;;5044913;28;20206;-52
2021/04/26 06:02:07;;;;;;;3.03;1.00;;;3.70;99.90;;;;;;5056545;28;20585;-49
2021/04/26 06:04:33;;;;;;;4.27;1.00;;;3.70;99.90;;;;;;5048154;28;20200;-54
2021/04/26 06:06:59;;;;;;;1.23;0.70;;;3.80;99.90;;;;;;5044108;28;20205;-53
2021/04/26 06:09:26;;;;;;;2.63;1.07;;;3.80;99.90;;;;;;5032010;28;20201;-55
2021/04/26 06:11:52;;;;;;;2.87;1.40;;;3.80;99.90;;;;;;5054291;28;20228;-52
2021/04/26 06:14:18;;;;;;;1.87;1.10;;;3.90;99.90;;;;;;5049281;28;20201;-56
2021/04/26 06:16:45;;;;;;;2.03;1.07;;;4.00;99.90;;;;;;5051697;28;20196;-49
2021/04/26 06:19:11;;;;;;;1.33;0.90;;;4.00;99.90;;;;;;5052866;28;20206;-58
2021/04/26 06:21:37;;;;;;;2.10;0.90;;;4.10;99.90;;;;;;5048305;28;20427;-52
2021/04/26 06:24:04;;;;;;;5.03;1.20;;;4.10;99.90;;;;;;5050168;28;20209;-55
2021/04/26 06:26:30;;;;;;;2.37;1.00;;;4.20;99.90;;;;;;5026345;28;20305;-56
2021/04/26 06:28:57;;;;;;;1.57;0.87;;;4.20;99.90;;;;;;5050113;28;20202;-54
2021/04/26 06:31:23;;;;;;;4.40;1.00;;;4.30;99.90;;;;;;5038759;28;20229;-57
2021/04/26 06:33:50;;;;;;;2.00;1.10;;;4.40;99.90;;;;;;5049562;28;20806;-56
2021/04/26 06:36:16;;;;;;;1.80;0.90;;;4.50;99.90;;;;;;5054572;28;20218;-57
2021/04/26 06:38:42;;;;;;;1.30;1.10;;;4.70;99.90;;;;;;5045485;28;20405;-55
2021/04/26 06:41:08;;;;;;;1.17;1.03;;;4.80;99.90;;;;;;5056369;28;20217;-58
2021/04/26 06:43:34;;;;;;;4.37;1.20;;;4.90;99.90;;;;;;5036203;28;20563;-53
2021/04/26 06:46:00;;;;;;;0.97;0.87;;;5.00;99.90;;;;;;5036509;28;20196;-52
2021/04/26 06:48:27;;;;;;;2.10;1.00;;;5.10;99.90;;;;;;5038071;28;20210;-56
2021/04/26 06:50:54;;;;;;;2.13;1.10;;;5.20;99.90;;;;;;5041089;28;20229;-52
2021/04/26 06:53:20;;;;;;;0.90;0.90;;;5.30;99.90;;;;;;5038117;28;20226;-57
2021/04/26 06:55:46;;;;;;;3.67;0.90;;;5.30;99.90;;;;;;5039035;28;20229;-52
2021/04/26 06:58:12;;;;;;;5.40;0.90;;;5.40;99.90;;;;;;5036426;28;20213;-56
2021/04/26 07:00:39;;;;;;;1.03;0.80;;;5.40;99.90;;;;;;5045958;28;20203;-53
2021/04/26 07:03:05;;;;;;;2.17;0.70;;;5.50;99.90;;;;;;5044430;28;20195;-51
2021/04/26 07:05:32;;;;;;;2.57;0.70;;;5.50;99.90;;;;;;5041423;28;20274;-53
2021/04/26 07:07:59;;;;;;;4.43;0.90;;;5.60;99.90;;;;;;5041559;28;20726;-57
2021/04/26 07:10:25;;;;;;;2.47;0.70;;;5.70;99.90;;;;;;5047469;28;20199;-51
2021/04/26 07:12:51;;;;;;;1.93;1.07;;;5.90;99.90;;;;;;5046552;28;20219;-53
2021/04/26 07:15:17;;;;;;;2.17;0.90;;;5.90;99.90;;;;;;5041597;28;20408;-55
2021/04/26 07:17:44;;;;;;;2.40;0.60;;;6.00;99.90;;;;;;5047134;28;20210;-52
2021/04/26 07:20:13;;;;;;;4.17;0.80;;;6.20;99.90;;;;;;5043859;28;20199;-57
2021/04/26 07:22:40;;;;;;;1.27;0.67;;;6.20;99.90;;;;;;5053990;28;20739;-51
2021/04/26 07:25:08;;;;;;;0.50;0.40;;;6.20;99.90;;;;;;5054725;28;20194;-57
2021/04/26 07:27:34;;;;;;;1.77;0.60;;;6.40;98.70;;;;;;5034539;28;20218;-55
2021/04/26 07:30:01;;;;;;;3.03;0.50;;;6.50;97.60;;;;;;5051736;28;20207;-55
2021/04/26 07:32:27;;;;;;;4.23;0.70;;;6.60;99.60;;;;;;5048263;28;20211;-55
2021/04/26 07:34:54;;;;;;;1.20;0.60;;;6.60;97.70;;;;;;5055873;28;20225;-57
2021/04/26 07:37:20;;;;;;;2.20;0.50;;;6.60;97.10;;;;;;5034409;28;20305;-55
2021/04/26 07:39:46;;;;;;;2.07;0.70;;;6.60;95.50;;;;;;5043743;28;20195;-56
2021/04/26 07:42:13;;;;;;;0.87;0.50;;;6.70;95.60;;;;;;5037969;28;20223;-56
2021/04/26 07:44:39;;;;;;;0.67;0.57;;;6.80;95.10;;;;;;5036654;28;20206;-57
2021/04/26 07:47:07;;;;;;;1.73;0.60;;;6.90;94.60;;;;;;5058943;28;20557;-55
2021/04/26 07:49:33;;;;;;;2.20;0.50;;;6.90;94.50;;;;;;5043450;28;20204;-55
2021/04/26 07:51:59;;;;;;;2.47;0.50;;;7.00;93.00;;;;;;5045039;28;20289;-55
2021/04/26 07:54:25;;;;;;;1.43;0.57;;;7.20;93.10;;;;;;5050368;28;20198;-51
2021/04/26 07:56:51;;;;;;;0.57;0.40;;;7.30;99.40;;;;;;5051360;28;20222;-55
2021/04/26 07:59:19;;;;;;;1.17;0.53;;;7.40;99.00;;;;;;5029377;28;20215;-55
2021/04/26 08:01:45;;;;;;;1.17;0.40;;;7.50;91.60;;;;;;5040331;28;20385;-54
2021/04/26 08:04:12;;;;;;;2.53;0.63;;;7.60;87.90;;;;;;5049865;28;20616;-56
2021/04/26 08:06:38;;;;;;;2.07;0.40;;;7.70;87.20;;;;;;5050347;28;20206;-54
2021/04/26 08:09:05;;;;;;;0.20;0.20;;;7.70;86.70;;;;;;5041369;28;20196;-54
2021/04/26 08:11:31;;;;;;;1.50;0.53;;;7.80;86.00;;;;;;5046301;28;20223;-54
2021/04/26 08:13:57;;;;;;;0.83;0.37;;;7.80;85.00;;;;;;5033624;28;20203;-54
2021/04/26 08:16:24;;;;;;;0.83;0.33;;;8.00;82.90;;;;;;5057649;28;20241;-52
2021/04/26 08:18:50;;;;;;;0.70;0.40;;;8.10;81.00;;;;;;5064423;28;20195;-49
2021/04/26 08:21:16;;;;;;;0.43;0.23;;;8.30;80.20;;;;;;5046713;28;20492;-55
2021/04/26 08:23:43;;;;;;;2.03;0.70;;;8.40;78.50;;;;;;5064008;28;20206;-53
2021/04/26 08:26:09;;;;;;;3.10;1.07;;;8.50;76.40;;;;;;5063419;28;20892;-52
2021/04/26 08:28:35;;;;;;;1.60;0.30;;;8.60;75.60;;;;;;5051539;28;20263;-50
2021/04/26 08:31:01;;;;;;;2.43;0.60;;;8.70;73.80;;;;;;5050740;28;20215;-53
2021/04/26 08:33:28;;;;;;;3.33;0.60;;;8.80;73.40;;;;;;5041490;28;20199;-53
2021/04/26 08:35:55;;;;;;;0.90;0.40;;;8.80;72.60;;;;;;5053730;28;20264;-54
2021/04/26 08:38:21;;;;;;;0.70;0.60;;;8.90;71.60;;;;;;5039668;28;20237;-52
2021/04/26 08:40:47;;;;;;;0.63;0.40;;;8.90;70.20;;;;;;5048164;28;20226;-52
2021/04/26 08:43:14;;;;;;;1.10;0.67;;;9.00;70.50;;;;;;5043244;28;20215;-50
2021/04/26 08:45:40;;;;;;;0.67;0.50;;;9.00;70.20;;;;;;5045737;28;20200;-49
2021/04/26 08:48:07;;;;;;;1.80;0.50;;;9.10;70.00;;;;;;5050463;28;20216;-52
2021/04/26 08:50:35;;;;;;;1.23;0.30;;;9.20;71.10;;;;;;5045026;28;20214;-50
2021/04/26 08:53:01;;;;;;;1.43;0.50;;;9.20;68.60;;;;;;5050867;28;20213;-54
2021/04/26 08:55:28;;;;;;;2.17;0.60;;;9.30;69.30;;;;;;5033842;28;20248;-51
2021/04/26 08:57:54;;;;;;;0.60;0.37;;;9.30;68.60;;;;;;5050467;28;20276;-54
2021/04/26 09:00:21;;;;;;;0.50;0.47;;;9.40;67.90;;;;;;5051089;28;20211;-55
2021/04/26 09:02:53;;;;;;;1.17;0.60;;;9.40;67.00;;;;;;5044154;28;20642;-51
2021/04/26 09:05:24;;;;;;;0.60;0.60;;;9.50;66.20;;;;;;5056970;28;20190;-54
2021/04/26 09:07:53;;;;;;;4.90;4.43;;;9.60;66.30;;;;;;5063259;28;20202;-55
2021/04/26 09:10:35;;;;;;;0.80;0.40;;;9.60;65.90;;;;;;5056255;28;20484;-52
2021/04/26 09:13:31;;;;;;;2.17;0.60;;;9.60;65.40;;;;;;5042356;28;20202;-54
2021/04/26 09:15:59;;;;;;;0.30;0.30;;;9.60;65.60;;;;;;5040284;28;20688;-55
2021/04/26 09:18:49;;;;;;;0.67;0.43;;;9.70;64.70;;;;;;5059240;28;20218;-52
2021/04/26 09:21:17;;;;;;;1.47;0.50;;;9.70;61.30;;;;;;5055430;28;20215;-52
2021/04/26 09:23:45;;;;;;;1.53;0.43;;;9.70;62.90;;;;;;5066632;28;20659;-53
2021/04/26 09:26:25;;;;;;;2.07;1.53;;;9.90;63.70;;;;;;5056614;28;20231;-53
2021/04/26 09:29:18;;;;;;;1.67;0.70;;;9.90;61.20;;;;;;5039354;28;20195;-54
2021/04/26 09:32:01;;;;;;;2.93;0.70;;;9.90;60.70;;;;;;5040821;28;20226;-51
2021/04/26 09:34:36;;;;;;;1.70;0.50;;;9.90;61.70;;;;;;5055844;28;20195;-50
2021/04/26 09:37:09;;;;;;;0.60;0.47;;;9.90;61.80;;;;;;5022479;28;20215;-49
2021/04/26 09:39:37;;;;;;;2.10;0.80;;;9.90;61.00;;;;;;5025960;28;20200;-52
2021/04/26 09:42:04;;;;;;;0.40;0.40;;;9.90;61.90;;;;;;5020310;28;20311;-52
2021/04/26 09:44:30;;;;;;;2.67;1.10;;;9.90;61.60;;;;;;5046513;28;20203;-50
2021/04/26 09:46:56;;;;;;;1.47;0.70;;;10.00;60.50;;;;;;5031732;28;20264;-52
2021/04/26 09:49:24;;;;;;;0.97;0.60;;;9.90;57.90;;;;;;5047609;28;20313;-52
2021/04/26 09:51:53;;;;;;;1.27;0.70;;;9.90;59.20;;;;;;5052836;28;20212;-52
2021/04/26 09:54:34;;;;;;;2.37;1.00;;;9.80;57.20;;;;;;5041575;28;20390;-53
2021/04/26 09:57:02;;;;;;;3.80;1.30;;;9.70;55.60;;;;;;5037320;28;20214;-53
2021/04/26 09:59:28;;;;;;;0.67;0.67;;;9.60;56.90;;;;;;5042912;28;20218;-51
2021/04/26 10:01:55;;;;;;;1.87;0.97;;;9.60;58.40;;;;;;5033851;28;20226;-54
2021/04/26 10:04:21;;;;;;;1.67;0.87;;;9.70;57.30;;;;;;5046982;28;20226;-50
2021/04/26 10:06:47;;;;;;;2.97;0.90;;;9.70;57.60;;;;;;5026797;28;20191;-53
2021/04/26 10:09:14;;;;;;;1.30;0.70;;;9.70;57.50;;;;;;5022189;28;20203;-54
2021/04/26 10:11:40;;;;;;;1.40;0.70;;;9.80;57.70;;;;;;5044893;28;20700;-54
2021/04/26 10:14:09;;;;;;;1.23;0.70;;;10.00;58.30;;;;;;5036735;28;20203;-53
2021/04/26 10:16:41;;;;;;;3.60;0.90;;;10.20;57.30;;;;;;5045474;28;20242;-50
2021/04/26 10:19:09;;;;;;;1.33;0.80;;;10.50;57.30;;;;;;5037888;28;20288;-51
2021/04/26 10:21:36;;;;;;;2.37;0.87;;;10.60;55.90;;;;;;5053237;28;20215;-54
2021/04/26 10:24:16;;;;;;;1.40;0.70;;;10.60;55.60;;;;;;5043339;28;20214;-55
2021/04/26 10:26:48;;;;;;;2.03;0.80;;;10.30;53.80;;;;;;5043990;28;20207;-55
2021/04/26 10:29:17;;;;;;;1.87;0.90;;;10.20;55.00;;;;;;5042149;28;20194;-54
2021/04/26 10:32:09;;;;;;;3.03;0.80;;;10.20;55.70;;;;;;5064310;28;20325;-53
2021/04/26 10:34:38;;;;;;;2.20;0.70;;;10.40;55.40;;;;;;5034077;28;20211;-50
2021/04/26 10:37:05;;;;;;;2.03;0.80;;;10.30;54.90;;;;;;5039782;28;20499;-56
2021/04/26 10:39:33;;;;;;;0.70;0.70;;;10.30;54.70;;;;;;5040195;28;20199;-52
2021/04/26 10:42:03;;;;;;;2.40;0.90;;;10.30;55.00;;;;;;5044838;28;20213;-55
2021/04/26 10:44:51;;;;;;;4.27;1.00;;;10.20;55.10;;;;;;5050001;28;20208;-53
2021/04/26 10:47:24;;;;;;;2.10;0.70;;;10.20;55.20;;;;;;5046235;28;20341;-55
2021/04/26 10:49:51;;;;;;;0.80;0.80;;;10.20;54.70;;;;;;5030949;28;20211;-55
2021/04/26 10:52:38;;;;;;;1.10;0.80;;;10.10;53.70;;;;;;5063192;28;20291;-51
2021/04/26 10:55:08;;;;;;;1.03;0.43;;;10.10;54.30;;;;;;5036677;28;20191;-52
2021/04/26 10:57:37;;;;;;;2.33;0.90;;;10.20;55.10;;;;;;5053404;28;20728;-52
2021/04/26 11:00:43;;;;;;;1.17;0.53;;;10.30;54.20;;;;;;5026818;28;20634;-54
2021/04/26 11:03:32;;;;;;;0.77;0.77;;;10.30;55.70;;;;;;5044713;28;20274;-53
2021/04/26 11:06:08;;;;;;;2.90;0.70;;;10.40;55.00;;;;;;5031650;28;20210;-57
2021/04/26 11:08:42;;;;;;;2.97;0.80;;;10.50;54.10;;;;;;5021029;28;20538;-53
2021/04/26 11:11:12;;;;;;;0.73;0.73;;;10.60;53.80;;;;;;5043186;28;20219;-56
2021/04/26 11:13:41;;;;;;;1.60;0.77;;;10.70;54.40;;;;;;5050266;28;20252;-54
2021/04/26 11:16:10;;;;;;;2.77;0.80;;;10.90;53.90;;;;;;5011310;28;20215;-54
2021/04/26 11:18:38;;;;;;;0.70;0.70;;;11.10;52.60;;;;;;5048783;28;20208;-55
2021/04/26 11:21:05;;;;;;;0.97;0.60;;;11.10;52.40;;;;;;5035810;28;20799;-55
2021/04/26 11:23:43;;;;;;;1.00;0.60;;;11.20;53.30;;;;;;5044252;28;20196;-55
2021/04/26 11:26:15;;;;;;;2.20;0.80;;;11.20;51.20;;;;;;5037195;28;20216;-53
2021/04/26 11:29:11;;;;;;;3.00;0.67;;;11.10;51.40;;;;;;5044186;28;20258;-55
2021/04/26 11:32:04;;;;;;;1.50;0.80;;;11.00;49.90;;;;;;4972032;28;20233;-54
2021/04/26 11:35:05;;;;;;;1.03;0.63;;;10.90;52.00;;;;;;5049643;28;20210;-57
2021/04/26 11:37:34;;;;;;;0.80;0.80;;;10.90;51.20;;;;;;5030016;28;20212;-57
2021/04/26 11:40:13;;;;;;;0.70;0.70;;;10.80;51.80;;;;;;5027339;28;20728;-53
2021/04/26 11:42:40;;;;;;;2.37;1.57;;;10.90;52.30;;;;;;5031933;28;20373;-53
2021/04/26 11:45:08;;;;;;;1.07;0.67;;;10.90;51.40;;;;;;5037301;28;20863;-56
2021/04/26 11:47:35;;;;;;;1.00;0.77;;;10.90;51.50;;;;;;5034406;28;20210;-54
2021/04/26 11:50:02;;;;;;;1.40;0.70;;;10.90;51.40;;;;;;5040896;28;20217;-56
2021/04/26 11:52:30;;;;;;;2.77;0.90;;;10.90;51.30;;;;;;5032285;28;20281;-56
2021/04/26 11:55:09;;;;;;;0.80;0.80;;;10.80;51.10;;;;;;5055033;28;20195;-55
2021/04/26 11:57:43;;;;;;;2.10;0.90;;;10.90;51.30;;;;;;5049826;28;20513;-56
2021/04/26 12:00:11;;;;;;;1.43;1.00;;;10.90;50.90;;;;;;5043101;28;20572;-53
2021/04/26 12:02:41;;;;;;;2.90;0.70;;;10.80;50.40;;;;;;5047523;28;20223;-55
2021/04/26 12:05:09;;;;;;;2.20;1.13;;;10.90;51.20;;;;;;5067503;28;20199;-56
2021/04/26 12:07:35;;;;;;;2.23;1.10;;;10.80;50.40;;;;;;5042704;28;20203;-56
2021/04/26 12:10:04;;;;;;;2.10;0.87;;;10.80;51.00;;;;;;5058607;28;20201;-54
2021/04/26 12:12:33;;;;;;;1.83;0.80;;;10.90;50.70;;;;;;5043097;28;20229;-56
2021/04/26 12:15:00;;;;;;;2.13;0.90;;;11.00;51.00;;;;;;5043271;28;20204;-56
2021/04/26 12:17:28;;;;;;;1.73;0.93;;;11.00;50.70;;;;;;5036465;28;20352;-57
2021/04/26 12:19:57;;;;;;;3.13;0.90;;;11.00;50.40;;;;;;5042426;28;20203;-55
2021/04/26 12:22:25;;;;;;;4.03;1.00;;;11.00;50.50;;;;;;5050580;28;20306;-54
2021/04/26 12:24:53;;;;;;;5.70;1.20;;;11.20;51.80;;;;;;5050043;28;20676;-52
2021/04/26 12:27:23;;;;;;;3.00;1.00;;;11.50;52.10;;;;;;5042249;28;20241;-57
2021/04/26 12:29:49;;;;;;;0.83;0.83;;;11.70;51.20;;;;;;5045934;28;20464;-53
2021/04/26 12:32:17;;;;;;;2.27;1.00;;;11.70;50.00;;;;;;5042840;28;20227;-57
2021/04/26 12:34:54;;;;;;;2.77;0.80;;;11.60;50.30;;;;;;5040853;28;20203;-52
2021/04/26 12:37:23;;;;;;;1.73;0.80;;;11.70;50.70;;;;;;5042136;28;20201;-57
2021/04/26 12:39:50;;;;;;;2.77;1.17;;;11.80;50.20;;;;;;5039362;28;20213;-54
2021/04/26 12:42:20;;;;;;;1.17;0.97;;;11.80;50.80;;;;;;5061681;28;20210;-58
2021/04/26 12:44:47;;;;;;;2.53;0.70;;;11.80;50.30;;;;;;5041445;28;20203;-56
2021/04/26 12:47:22;;;;;;;1.90;0.90;;;11.80;49.80;;;;;;5038757;28;20558;-53
2021/04/26 12:49:49;;;;;;;2.93;0.80;;;11.80;50.30;;;;;;5043859;28;20420;-50
2021/04/26 12:52:17;;;;;;;8.43;1.17;;;11.80;49.70;;;;;;5045073;28;20215;-56
2021/04/26 12:54:59;;;;;;;2.07;0.93;;;11.80;50.90;;;;;;5030285;28;20296;-55
2021/04/26 12:57:26;;;;;;;2.17;1.10;;;11.80;49.60;;;;;;5041685;28;20575;-56
2021/04/26 12:59:52;;;;;;;2.30;1.10;;;11.60;49.10;;;;;;5036386;28;20935;-55
2021/04/26 13:02:23;;;;;;;2.73;0.90;;;11.60;50.30;;;;;;5034307;28;20231;-56
2021/04/26 13:04:50;;;;;;;1.20;0.63;;;11.70;50.70;;;;;;5060576;28;20796;-52
2021/04/26 13:07:16;;;;;;;1.47;0.80;;;11.60;50.20;;;;;;5063264;28;20187;-56
2021/04/26 13:09:43;;;;;;;1.00;1.00;;;11.60;50.40;;;;;;5045389;28;20507;-56
2021/04/26 13:12:10;;;;;;;2.60;1.10;;;11.60;50.20;;;;;;5055313;28;20711;-55
2021/04/26 13:14:36;;;;;;;0.80;0.80;;;11.60;48.90;;;;;;5043050;28;20924;-51